KCNK/CNK METAR and TAF weather

Enter ICAO airport designator
Station Type Date Time Source
KCNK METAR 2023/02/04 02:55 UTC NOAA

KCNK 040255Z AUTO 19015KT 10SM CLR 02/M06 A3019 RMK AO2 SLP242 T00221061 58018


Station Type Date Time Source
KCNK Decoded METAR 2023/02/04 02:55 UTC NOAA

Concordia, Blosser Municipal Airport, KS, United States (KCNK) 39-33-05N 097-39-02W 447M
Feb 03, 2023 - 09:55 PM EST / 2023.02.04 0255 UTC
Wind: from the S (190 degrees) at 17 MPH (15 KT):0
Visibility: 10 mile(s):0
Sky conditions: clear
Temperature: 36.0 F (2.2 C)
Dew Point: 21.0 F (-6.1 C)
Relative Humidity: 54%
Pressure (altimeter): 30.19 in. Hg (1022 hPa)
Pressure tendency: 0.05 inches (1.8 hPa) lower than three hours ago
ob: KCNK 040255Z AUTO 19015KT 10SM CLR 02/M06 A3019 RMK AO2 SLP242 T00221061 58018
cycle: 3

Station Type Date Time Source
KCNK TAF UTC NOAA

Error!

Example: see airport list